sensor_id;sensor_type;location;lat;lon;timestamp;temperature;humidity
16384;DHT22;8301;51.440;6.610;2023-07-02T00:02:22;16.90;1.00
16384;DHT22;8301;51.440;6.610;2023-07-02T00:04:49;16.90;1.00
16384;DHT22;8301;51.440;6.610;2023-07-02T00:07:16;16.90;99.90
16384;DHT22;8301;51.440;6.610;2023-07-02T00:09:43;16.90;1.00
16384;DHT22;8301;51.440;6.610;2023-07-02T00:12:10;16.90;1.00
16384;DHT22;8301;51.440;6.610;2023-07-02T00:14:36;17.00;99.90
16384;DHT22;8301;51.440;6.610;2023-07-02T00:17:03;17.00;1.00
16384;DHT22;8301;51.440;6.610;2023-07-02T00:19:30;16.90;1.00
16384;DHT22;8301;51.440;6.610;2023-07-02T00:21:57;16.90;1.00
16384;DHT22;8301;51.440;6.610;2023-07-02T00:24:26;17.00;99.90
16384;DHT22;8301;51.440;6.610;2023-07-02T00:26:54;16.90;99.90
16384;DHT22;8301;51.440;6.610;2023-07-02T00:29:21;16.90;99.90
16384;DHT22;8301;51.440;6.610;2023-07-02T00:31:47;16.90;1.00
16384;DHT22;8301;51.440;6.610;2023-07-02T00:34:14;16.90;1.00
16384;DHT22;8301;51.440;6.610;2023-07-02T00:36:41;16.90;1.00
16384;DHT22;8301;51.440;6.610;2023-07-02T00:39:08;16.90;1.50
16384;DHT22;8301;51.440;6.610;2023-07-02T00:41:35;16.80;1.00
16384;DHT22;8301;51.440;6.610;2023-07-02T00:44:01;16.70;1.00
16384;DHT22;8301;51.440;6.610;2023-07-02T00:46:28;16.70;1.00
16384;DHT22;8301;51.440;6.610;2023-07-02T00:48:59;16.70;99.90
16384;DHT22;8301;51.440;6.610;2023-07-02T00:51:27;16.70;67.40
16384;DHT22;8301;51.440;6.610;2023-07-02T00:53:54;16.60;1.00
16384;DHT22;8301;51.440;6.610;2023-07-02T00:56:22;16.60;1.00
16384;DHT22;8301;51.440;6.610;2023-07-02T00:58:49;16.70;1.00
16384;DHT22;8301;51.440;6.610;2023-07-02T01:01:17;16.60;1.00
16384;DHT22;8301;51.440;6.610;2023-07-02T01:03:54;16.60;1.00
16384;DHT22;8301;51.440;6.610;2023-07-02T01:06:25;16.60;1.00
16384;DHT22;8301;51.440;6.610;2023-07-02T01:08:58;16.50;1.00
16384;DHT22;8301;51.440;6.610;2023-07-02T01:11:21;16.40;1.00
16384;DHT22;8301;51.440;6.610;2023-07-02T01:13:50;16.40;1.00
16384;DHT22;8301;51.440;6.610;2023-07-02T01:16:18;16.40;1.00
16384;DHT22;8301;51.440;6.610;2023-07-02T01:18:46;16.30;1.00
16384;DHT22;8301;51.440;6.610;2023-07-02T01:21:13;16.30;1.00
16384;DHT22;8301;51.440;6.610;2023-07-02T01:23:40;16.20;1.00
16384;DHT22;8301;51.440;6.610;2023-07-02T01:26:07;16.20;1.00
16384;DHT22;8301;51.440;6.610;2023-07-02T01:28:37;16.20;1.00
16384;DHT22;8301;51.440;6.610;2023-07-02T01:31:04;16.20;1.00
16384;DHT22;8301;51.440;6.610;2023-07-02T01:33:34;16.20;1.00
16384;DHT22;8301;51.440;6.610;2023-07-02T01:36:00;16.30;1.00
16384;DHT22;8301;51.440;6.610;2023-07-02T01:38:27;16.30;1.00
16384;DHT22;8301;51.440;6.610;2023-07-02T01:40:54;16.30;1.00
16384;DHT22;8301;51.440;6.610;2023-07-02T01:43:21;16.20;1.00
16384;DHT22;8301;51.440;6.610;2023-07-02T01:45:48;16.20;1.00
16384;DHT22;8301;51.440;6.610;2023-07-02T01:48:14;16.20;1.00
16384;DHT22;8301;51.440;6.610;2023-07-02T01:50:41;16.20;1.00
16384;DHT22;8301;51.440;6.610;2023-07-02T01:53:08;16.20;1.00
16384;DHT22;8301;51.440;6.610;2023-07-02T01:55:35;16.30;99.90
16384;DHT22;8301;51.440;6.610;2023-07-02T01:58:02;16.30;1.00
16384;DHT22;8301;51.440;6.610;2023-07-02T02:00:28;16.30;99.90
16384;DHT22;8301;51.440;6.610;2023-07-02T02:02:56;16.30;99.90
16384;DHT22;8301;51.440;6.610;2023-07-02T02:05:22;16.30;99.90
16384;DHT22;8301;51.440;6.610;2023-07-02T02:07:49;16.30;99.90
16384;DHT22;8301;51.440;6.610;2023-07-02T02:10:16;16.30;99.90
16384;DHT22;8301;51.440;6.610;2023-07-02T02:12:43;16.30;99.90
16384;DHT22;8301;51.440;6.610;2023-07-02T02:15:10;16.30;99.90
16384;DHT22;8301;51.440;6.610;2023-07-02T02:17:38;16.30;99.90
16384;DHT22;8301;51.440;6.610;2023-07-02T02:20:05;16.30;99.90
16384;DHT22;8301;51.440;6.610;2023-07-02T02:22:34;16.30;99.90
16384;DHT22;8301;51.440;6.610;2023-07-02T02:25:00;16.30;99.90
16384;DHT22;8301;51.440;6.610;2023-07-02T02:27:27;16.30;91.90
16384;DHT22;8301;51.440;6.610;2023-07-02T02:29:54;16.30;1.00
16384;DHT22;8301;51.440;6.610;2023-07-02T02:32:21;16.30;99.90
16384;DHT22;8301;51.440;6.610;2023-07-02T02:34:49;16.30;91.20
16384;DHT22;8301;51.440;6.610;2023-07-02T02:37:16;16.30;49.40
16384;DHT22;8301;51.440;6.610;2023-07-02T02:39:43;16.30;69.50
16384;DHT22;8301;51.440;6.610;2023-07-02T02:42:10;16.30;4.90
16384;DHT22;8301;51.440;6.610;2023-07-02T02:44:37;16.30;48.40
16384;DHT22;8301;51.440;6.610;2023-07-02T02:47:05;16.20;99.90
16384;DHT22;8301;51.440;6.610;2023-07-02T02:49:31;16.20;93.60
16384;DHT22;8301;51.440;6.610;2023-07-02T02:51:58;16.20;99.90
16384;DHT22;8301;51.440;6.610;2023-07-02T02:54:25;16.20;99.90
16384;DHT22;8301;51.440;6.610;2023-07-02T02:56:52;16.10;99.90
16384;DHT22;8301;51.440;6.610;2023-07-02T02:59:19;16.10;99.90
16384;DHT22;8301;51.440;6.610;2023-07-02T03:01:45;16.00;99.90
16384;DHT22;8301;51.440;6.610;2023-07-02T03:04:12;16.00;1.00
16384;DHT22;8301;51.440;6.610;2023-07-02T03:06:39;15.90;1.00
16384;DHT22;8301;51.440;6.610;2023-07-02T03:09:06;15.90;1.00
16384;DHT22;8301;51.440;6.610;2023-07-02T03:11:33;15.80;1.00
16384;DHT22;8301;51.440;6.610;2023-07-02T03:14:00;15.80;1.00
16384;DHT22;8301;51.440;6.610;2023-07-02T03:16:27;15.80;1.00
16384;DHT22;8301;51.440;6.610;2023-07-02T03:18:54;15.80;1.00
16384;DHT22;8301;51.440;6.610;2023-07-02T03:21:20;15.90;1.00
16384;DHT22;8301;51.440;6.610;2023-07-02T03:23:47;15.80;1.00
16384;DHT22;8301;51.440;6.610;2023-07-02T03:26:15;15.80;1.00
16384;DHT22;8301;51.440;6.610;2023-07-02T03:28:42;15.80;1.00
16384;DHT22;8301;51.440;6.610;2023-07-02T03:31:09;15.90;1.00
16384;DHT22;8301;51.440;6.610;2023-07-02T03:33:35;15.80;1.00
16384;DHT22;8301;51.440;6.610;2023-07-02T03:36:02;15.80;1.00
16384;DHT22;8301;51.440;6.610;2023-07-02T03:38:29;15.80;1.00
16384;DHT22;8301;51.440;6.610;2023-07-02T03:40:56;15.80;1.00
16384;DHT22;8301;51.440;6.610;2023-07-02T03:43:23;15.80;1.00
16384;DHT22;8301;51.440;6.610;2023-07-02T03:45:52;15.80;1.00
16384;DHT22;8301;51.440;6.610;2023-07-02T03:48:19;15.80;1.00
16384;DHT22;8301;51.440;6.610;2023-07-02T03:50:46;15.80;1.00
16384;DHT22;8301;51.440;6.610;2023-07-02T03:53:13;15.80;1.00
16384;DHT22;8301;51.440;6.610;2023-07-02T03:55:40;15.80;1.00
16384;DHT22;8301;51.440;6.610;2023-07-02T03:58:06;15.80;1.00
16384;DHT22;8301;51.440;6.610;2023-07-02T04:00:33;15.80;1.00
16384;DHT22;8301;51.440;6.610;2023-07-02T04:03:00;15.80;37.80
16384;DHT22;8301;51.440;6.610;2023-07-02T04:05:28;15.70;99.90
16384;DHT22;8301;51.440;6.610;2023-07-02T04:07:54;15.70;93.60
16384;DHT22;8301;51.440;6.610;2023-07-02T04:10:21;15.80;99.90
16384;DHT22;8301;51.440;6.610;2023-07-02T04:12:48;15.80;99.90
16384;DHT22;8301;51.440;6.610;2023-07-02T04:15:15;15.80;54.20
16384;DHT22;8301;51.440;6.610;2023-07-02T04:17:44;15.80;1.00
16384;DHT22;8301;51.440;6.610;2023-07-02T04:20:11;15.80;99.90
16384;DHT22;8301;51.440;6.610;2023-07-02T04:22:37;15.80;1.00
16384;DHT22;8301;51.440;6.610;2023-07-02T04:25:04;15.90;1.00
16384;DHT22;8301;51.440;6.610;2023-07-02T04:27:31;15.90;99.90
16384;DHT22;8301;51.440;6.610;2023-07-02T04:29:58;15.80;99.90
16384;DHT22;8301;51.440;6.610;2023-07-02T04:32:25;15.90;99.90
16384;DHT22;8301;51.440;6.610;2023-07-02T04:34:52;15.90;1.00
16384;DHT22;8301;51.440;6.610;2023-07-02T04:37:18;15.90;73.20
16384;DHT22;8301;51.440;6.610;2023-07-02T04:39:47;15.90;97.60
16384;DHT22;8301;51.440;6.610;2023-07-02T04:42:14;16.00;1.00
16384;DHT22;8301;51.440;6.610;2023-07-02T04:44:40;16.00;1.00
16384;DHT22;8301;51.440;6.610;2023-07-02T04:47:09;16.00;1.00
16384;DHT22;8301;51.440;6.610;2023-07-02T04:49:36;16.00;1.00
16384;DHT22;8301;51.440;6.610;2023-07-02T04:52:03;16.00;1.00
16384;DHT22;8301;51.440;6.610;2023-07-02T04:54:29;16.00;1.00
16384;DHT22;8301;51.440;6.610;2023-07-02T04:56:57;16.00;1.00
16384;DHT22;8301;51.440;6.610;2023-07-02T04:59:25;16.10;1.00
16384;DHT22;8301;51.440;6.610;2023-07-02T05:01:51;16.10;1.00
16384;DHT22;8301;51.440;6.610;2023-07-02T05:04:19;16.10;1.00
16384;DHT22;8301;51.440;6.610;2023-07-02T05:06:46;16.20;1.00
16384;DHT22;8301;51.440;6.610;2023-07-02T05:09:13;16.20;1.00
16384;DHT22;8301;51.440;6.610;2023-07-02T05:11:40;16.20;1.00
16384;DHT22;8301;51.440;6.610;2023-07-02T05:14:07;16.30;1.00
16384;DHT22;8301;51.440;6.610;2023-07-02T05:16:34;16.30;99.90
16384;DHT22;8301;51.440;6.610;2023-07-02T05:19:00;16.30;1.00
16384;DHT22;8301;51.440;6.610;2023-07-02T05:21:27;16.30;99.90
16384;DHT22;8301;51.440;6.610;2023-07-02T05:23:54;16.30;1.00
16384;DHT22;8301;51.440;6.610;2023-07-02T05:26:21;16.40;99.90
16384;DHT22;8301;51.440;6.610;2023-07-02T05:28:48;16.50;99.90
16384;DHT22;8301;51.440;6.610;2023-07-02T05:31:14;16.60;99.90
16384;DHT22;8301;51.440;6.610;2023-07-02T05:33:41;16.60;99.90
16384;DHT22;8301;51.440;6.610;2023-07-02T05:36:08;16.60;59.00
16384;DHT22;8301;51.440;6.610;2023-07-02T05:38:35;16.70;80.70
16384;DHT22;8301;51.440;6.610;2023-07-02T05:41:04;16.80;11.20
16384;DHT22;8301;51.440;6.610;2023-07-02T05:43:31;17.00;1.00
16384;DHT22;8301;51.440;6.610;2023-07-02T05:45:58;17.00;1.00
16384;DHT22;8301;51.440;6.610;2023-07-02T05:48:27;17.00;1.00
16384;DHT22;8301;51.440;6.610;2023-07-02T05:50:54;17.30;1.00
16384;DHT22;8301;51.440;6.610;2023-07-02T05:53:21;17.40;1.00
16384;DHT22;8301;51.440;6.610;2023-07-02T05:55:48;17.40;1.00
16384;DHT22;8301;51.440;6.610;2023-07-02T05:58:15;17.50;99.90
16384;DHT22;8301;51.440;6.610;2023-07-02T06:00:41;17.50;1.00
16384;DHT22;8301;51.440;6.610;2023-07-02T06:03:10;17.70;99.90
16384;DHT22;8301;51.440;6.610;2023-07-02T06:05:37;17.50;99.90
16384;DHT22;8301;51.440;6.610;2023-07-02T06:08:04;17.40;99.90
16384;DHT22;8301;51.440;6.610;2023-07-02T06:10:30;17.40;99.90
16384;DHT22;8301;51.440;6.610;2023-07-02T06:12:57;17.50;99.90
16384;DHT22;8301;51.440;6.610;2023-07-02T06:15:24;17.50;99.90
16384;DHT22;8301;51.440;6.610;2023-07-02T06:17:51;17.60;99.90
16384;DHT22;8301;51.440;6.610;2023-07-02T06:20:20;17.80;99.90
16384;DHT22;8301;51.440;6.610;2023-07-02T06:22:46;17.80;31.40
16384;DHT22;8301;51.440;6.610;2023-07-02T06:25:13;17.80;1.00
16384;DHT22;8301;51.440;6.610;2023-07-02T06:27:40;18.00;30.00
16384;DHT22;8301;51.440;6.610;2023-07-02T06:30:07;18.00;1.00
16384;DHT22;8301;51.440;6.610;2023-07-02T06:32:34;18.00;1.00
16384;DHT22;8301;51.440;6.610;2023-07-02T06:35:01;18.00;1.00
16384;DHT22;8301;51.440;6.610;2023-07-02T06:37:27;18.00;1.00
16384;DHT22;8301;51.440;6.610;2023-07-02T06:39:54;18.00;1.00
16384;DHT22;8301;51.440;6.610;2023-07-02T06:42:23;18.00;55.50
16384;DHT22;8301;51.440;6.610;2023-07-02T06:44:50;18.10;1.00
16384;DHT22;8301;51.440;6.610;2023-07-02T06:47:17;18.00;1.00
16384;DHT22;8301;51.440;6.610;2023-07-02T06:49:43;18.10;25.80
16384;DHT22;8301;51.440;6.610;2023-07-02T06:52:12;18.10;1.00
16384;DHT22;8301;51.440;6.610;2023-07-02T06:54:39;18.10;1.00
16384;DHT22;8301;51.440;6.610;2023-07-02T06:57:06;18.20;1.00
16384;DHT22;8301;51.440;6.610;2023-07-02T06:59:33;18.00;1.00
16384;DHT22;8301;51.440;6.610;2023-07-02T07:01:59;18.10;1.00
16384;DHT22;8301;51.440;6.610;2023-07-02T07:04:26;18.20;1.00
16384;DHT22;8301;51.440;6.610;2023-07-02T07:06:54;18.30;1.00
16384;DHT22;8301;51.440;6.610;2023-07-02T07:09:23;18.40;1.00
16384;DHT22;8301;51.440;6.610;2023-07-02T07:11:53;18.60;1.00
16384;DHT22;8301;51.440;6.610;2023-07-02T07:14:20;18.50;1.00
16384;DHT22;8301;51.440;6.610;2023-07-02T07:16:47;18.60;1.00
16384;DHT22;8301;51.440;6.610;2023-07-02T07:19:15;18.50;1.00
16384;DHT22;8301;51.440;6.610;2023-07-02T07:21:42;18.60;1.00
16384;DHT22;8301;51.440;6.610;2023-07-02T07:24:10;18.70;1.00
16384;DHT22;8301;51.440;6.610;2023-07-02T07:26:37;18.80;1.00
16384;DHT22;8301;51.440;6.610;2023-07-02T07:29:04;18.80;1.00
16384;DHT22;8301;51.440;6.610;2023-07-02T07:31:31;18.90;1.00
16384;DHT22;8301;51.440;6.610;2023-07-02T07:33:58;18.80;1.00
16384;DHT22;8301;51.440;6.610;2023-07-02T07:36:25;18.80;1.00
16384;DHT22;8301;51.440;6.610;2023-07-02T07:38:51;18.90;1.00
16384;DHT22;8301;51.440;6.610;2023-07-02T07:41:18;19.20;1.00
16384;DHT22;8301;51.440;6.610;2023-07-02T07:43:45;19.00;1.00
16384;DHT22;8301;51.440;6.610;2023-07-02T07:46:12;18.90;1.00
16384;DHT22;8301;51.440;6.610;2023-07-02T07:48:39;18.90;1.00
16384;DHT22;8301;51.440;6.610;2023-07-02T07:51:06;19.00;1.00
16384;DHT22;8301;51.440;6.610;2023-07-02T07:53:33;19.00;1.00
16384;DHT22;8301;51.440;6.610;2023-07-02T07:55:59;19.10;1.00
16384;DHT22;8301;51.440;6.610;2023-07-02T07:58:26;19.10;1.00
16384;DHT22;8301;51.440;6.610;2023-07-02T08:00:54;19.20;1.00
16384;DHT22;8301;51.440;6.610;2023-07-02T08:03:21;18.90;1.00
16384;DHT22;8301;51.440;6.610;2023-07-02T08:05:48;18.90;1.00
16384;DHT22;8301;51.440;6.610;2023-07-02T08:08:14;18.90;1.00
16384;DHT22;8301;51.440;6.610;2023-07-02T08:10:41;18.90;1.00
16384;DHT22;8301;51.440;6.610;2023-07-02T08:13:14;19.20;1.00
16384;DHT22;8301;51.440;6.610;2023-07-02T08:15:42;19.40;1.00
16384;DHT22;8301;51.440;6.610;2023-07-02T08:18:09;19.60;1.00
16384;DHT22;8301;51.440;6.610;2023-07-02T08:20:38;19.70;1.00
16384;DHT22;8301;51.440;6.610;2023-07-02T08:23:05;19.80;1.00
16384;DHT22;8301;51.440;6.610;2023-07-02T08:25:32;19.50;1.00
16384;DHT22;8301;51.440;6.610;2023-07-02T08:27:59;19.40;1.00
16384;DHT22;8301;51.440;6.610;2023-07-02T08:30:27;19.40;1.00
16384;DHT22;8301;51.440;6.610;2023-07-02T08:32:53;19.50;1.00
16384;DHT22;8301;51.440;6.610;2023-07-02T08:35:22;19.70;1.00
16384;DHT22;8301;51.440;6.610;2023-07-02T08:37:50;19.70;1.00
16384;DHT22;8301;51.440;6.610;2023-07-02T08:40:18;19.70;1.00
16384;DHT22;8301;51.440;6.610;2023-07-02T08:42:46;19.80;1.00
16384;DHT22;8301;51.440;6.610;2023-07-02T08:45:16;20.00;1.00
16384;DHT22;8301;51.440;6.610;2023-07-02T08:47:44;20.00;1.00
16384;DHT22;8301;51.440;6.610;2023-07-02T08:50:11;20.20;1.00
16384;DHT22;8301;51.440;6.610;2023-07-02T08:52:39;20.60;1.00
16384;DHT22;8301;51.440;6.610;2023-07-02T08:55:06;20.50;1.00
16384;DHT22;8301;51.440;6.610;2023-07-02T08:57:34;20.20;1.00
16384;DHT22;8301;51.440;6.610;2023-07-02T09:00:09;20.20;1.00
16384;DHT22;8301;51.440;6.610;2023-07-02T09:02:37;20.30;1.00
16384;DHT22;8301;51.440;6.610;2023-07-02T09:05:04;20.30;1.00
16384;DHT22;8301;51.440;6.610;2023-07-02T09:07:31;20.10;1.00
16384;DHT22;8301;51.440;6.610;2023-07-02T09:09:57;20.00;1.00
16384;DHT22;8301;51.440;6.610;2023-07-02T09:12:31;20.00;1.00
16384;DHT22;8301;51.440;6.610;2023-07-02T09:14:59;20.30;1.00
16384;DHT22;8301;51.440;6.610;2023-07-02T09:17:29;20.60;1.00
16384;DHT22;8301;51.440;6.610;2023-07-02T09:19:57;20.80;1.00
16384;DHT22;8301;51.440;6.610;2023-07-02T09:22:26;20.90;1.00
16384;DHT22;8301;51.440;6.610;2023-07-02T09:24:53;20.60;1.00
16384;DHT22;8301;51.440;6.610;2023-07-02T09:27:21;20.20;1.00
16384;DHT22;8301;51.440;6.610;2023-07-02T09:29:54;19.80;1.00
16384;DHT22;8301;51.440;6.610;2023-07-02T09:32:24;19.80;1.00
16384;DHT22;8301;51.440;6.610;2023-07-02T09:34:54;20.00;1.00
16384;DHT22;8301;51.440;6.610;2023-07-02T09:37:22;19.70;1.00
16384;DHT22;8301;51.440;6.610;2023-07-02T09:39:52;19.70;1.00
16384;DHT22;8301;51.440;6.610;2023-07-02T09:42:22;19.30;1.00
16384;DHT22;8301;51.440;6.610;2023-07-02T09:44:58;19.20;1.00
16384;DHT22;8301;51.440;6.610;2023-07-02T09:47:22;19.30;1.00
16384;DHT22;8301;51.440;6.610;2023-07-02T09:49:59;19.30;1.00
16384;DHT22;8301;51.440;6.610;2023-07-02T09:52:18;19.30;1.00
16384;DHT22;8301;51.440;6.610;2023-07-02T09:54:46;19.50;1.00
16384;DHT22;8301;51.440;6.610;2023-07-02T09:57:13;19.90;1.00
16384;DHT22;8301;51.440;6.610;2023-07-02T09:59:40;20.10;1.00
16384;DHT22;8301;51.440;6.610;2023-07-02T10:02:08;20.10;1.00
16384;DHT22;8301;51.440;6.610;2023-07-02T10:04:42;20.00;1.00
16384;DHT22;8301;51.440;6.610;2023-07-02T10:07:10;20.30;1.00
16384;DHT22;8301;51.440;6.610;2023-07-02T10:09:39;20.40;1.00
16384;DHT22;8301;51.440;6.610;2023-07-02T10:12:19;20.70;1.00
16384;DHT22;8301;51.440;6.610;2023-07-02T10:14:46;20.70;1.00
16384;DHT22;8301;51.440;6.610;2023-07-02T10:17:31;20.80;1.00
16384;DHT22;8301;51.440;6.610;2023-07-02T10:19:55;21.20;1.00
16384;DHT22;8301;51.440;6.610;2023-07-02T10:22:22;21.50;1.00
16384;DHT22;8301;51.440;6.610;2023-07-02T10:24:54;21.50;1.00
16384;DHT22;8301;51.440;6.610;2023-07-02T10:27:32;21.60;1.00
16384;DHT22;8301;51.440;6.610;2023-07-02T10:29:51;21.10;1.00
16384;DHT22;8301;51.440;6.610;2023-07-02T10:32:27;20.80;1.00
16384;DHT22;8301;51.440;6.610;2023-07-02T10:34:54;20.90;1.00
16384;DHT22;8301;51.440;6.610;2023-07-02T10:37:22;20.50;1.00
16384;DHT22;8301;51.440;6.610;2023-07-02T10:39:49;20.10;1.00
16384;DHT22;8301;51.440;6.610;2023-07-02T10:42:17;20.00;1.00
16384;DHT22;8301;51.440;6.610;2023-07-02T10:44:51;20.10;1.00
16384;DHT22;8301;51.440;6.610;2023-07-02T10:47:15;20.30;1.00
16384;DHT22;8301;51.440;6.610;2023-07-02T10:49:42;20.40;1.00
16384;DHT22;8301;51.440;6.610;2023-07-02T10:52:13;20.50;1.00
16384;DHT22;8301;51.440;6.610;2023-07-02T10:57:08;20.70;1.00
16384;DHT22;8301;51.440;6.610;2023-07-02T10:59:35;20.70;1.00
16384;DHT22;8301;51.440;6.610;2023-07-02T11:02:02;21.20;1.00
16384;DHT22;8301;51.440;6.610;2023-07-02T11:04:30;21.40;1.00
16384;DHT22;8301;51.440;6.610;2023-07-02T11:06:57;21.00;1.00
16384;DHT22;8301;51.440;6.610;2023-07-02T11:09:24;21.10;1.00
16384;DHT22;8301;51.440;6.610;2023-07-02T11:11:56;21.10;1.00
16384;DHT22;8301;51.440;6.610;2023-07-02T11:14:38;21.70;1.00
16384;DHT22;8301;51.440;6.610;2023-07-02T11:17:01;22.30;1.00
16384;DHT22;8301;51.440;6.610;2023-07-02T11:19:29;21.70;1.00
16384;DHT22;8301;51.440;6.610;2023-07-02T11:22:02;21.40;1.00
16384;DHT22;8301;51.440;6.610;2023-07-02T11:24:32;21.30;1.00
16384;DHT22;8301;51.440;6.610;2023-07-02T11:27:03;21.30;1.00
16384;DHT22;8301;51.440;6.610;2023-07-02T11:29:34;21.80;1.00
16384;DHT22;8301;51.440;6.610;2023-07-02T11:32:07;22.30;1.00
16384;DHT22;8301;51.440;6.610;2023-07-02T11:34:36;22.40;1.00
16384;DHT22;8301;51.440;6.610;2023-07-02T11:37:04;22.10;1.00
16384;DHT22;8301;51.440;6.610;2023-07-02T11:39:31;21.70;1.00
16384;DHT22;8301;51.440;6.610;2023-07-02T11:41:58;21.50;1.00
16384;DHT22;8301;51.440;6.610;2023-07-02T11:44:24;21.50;1.00
16384;DHT22;8301;51.440;6.610;2023-07-02T11:46:51;21.60;1.00
16384;DHT22;8301;51.440;6.610;2023-07-02T11:49:18;21.10;1.00
16384;DHT22;8301;51.440;6.610;2023-07-02T11:51:45;21.00;1.00
16384;DHT22;8301;51.440;6.610;2023-07-02T11:54:14;20.80;1.00
16384;DHT22;8301;51.440;6.610;2023-07-02T11:56:42;20.60;1.00
16384;DHT22;8301;51.440;6.610;2023-07-02T11:59:09;20.60;1.00
16384;DHT22;8301;51.440;6.610;2023-07-02T12:01:36;20.90;1.00
16384;DHT22;8301;51.440;6.610;2023-07-02T12:04:03;21.10;1.00
16384;DHT22;8301;51.440;6.610;2023-07-02T12:06:31;21.40;1.00
16384;DHT22;8301;51.440;6.610;2023-07-02T12:08:58;21.60;1.00
16384;DHT22;8301;51.440;6.610;2023-07-02T12:11:24;22.20;1.00
16384;DHT22;8301;51.440;6.610;2023-07-02T12:13:51;22.10;1.00
16384;DHT22;8301;51.440;6.610;2023-07-02T12:16:18;22.10;1.00
16384;DHT22;8301;51.440;6.610;2023-07-02T12:18:45;22.20;1.00
16384;DHT22;8301;51.440;6.610;2023-07-02T12:21:12;22.00;1.00
16384;DHT22;8301;51.440;6.610;2023-07-02T12:23:39;22.00;1.00
16384;DHT22;8301;51.440;6.610;2023-07-02T12:26:05;21.70;1.00
16384;DHT22;8301;51.440;6.610;2023-07-02T12:28:33;21.50;1.00
16384;DHT22;8301;51.440;6.610;2023-07-02T12:31:00;21.80;1.00
16384;DHT22;8301;51.440;6.610;2023-07-02T12:33:32;22.20;1.00
16384;DHT22;8301;51.440;6.610;2023-07-02T12:35:58;22.30;1.00
16384;DHT22;8301;51.440;6.610;2023-07-02T12:38:28;22.30;1.00
16384;DHT22;8301;51.440;6.610;2023-07-02T12:40:56;21.80;1.00
16384;DHT22;8301;51.440;6.610;2023-07-02T12:43:23;21.70;1.00
16384;DHT22;8301;51.440;6.610;2023-07-02T12:45:50;22.10;1.00
16384;DHT22;8301;51.440;6.610;2023-07-02T12:48:17;22.40;1.00
16384;DHT22;8301;51.440;6.610;2023-07-02T12:50:54;22.20;1.00
16384;DHT22;8301;51.440;6.610;2023-07-02T12:53:12;22.00;1.00
16384;DHT22;8301;51.440;6.610;2023-07-02T12:55:39;21.60;1.00
16384;DHT22;8301;51.440;6.610;2023-07-02T12:58:06;21.60;1.00
16384;DHT22;8301;51.440;6.610;2023-07-02T13:00:32;21.80;1.00
16384;DHT22;8301;51.440;6.610;2023-07-02T13:02:59;22.00;1.00
16384;DHT22;8301;51.440;6.610;2023-07-02T13:05:26;22.00;1.00
16384;DHT22;8301;51.440;6.610;2023-07-02T13:07:53;22.10;1.00
16384;DHT22;8301;51.440;6.610;2023-07-02T13:10:21;22.10;1.00
16384;DHT22;8301;51.440;6.610;2023-07-02T13:12:49;22.10;1.00
16384;DHT22;8301;51.440;6.610;2023-07-02T13:15:16;21.60;1.00
16384;DHT22;8301;51.440;6.610;2023-07-02T13:17:43;21.50;1.00
16384;DHT22;8301;51.440;6.610;2023-07-02T13:20:10;22.10;1.00
16384;DHT22;8301;51.440;6.610;2023-07-02T13:22:36;22.40;1.00
16384;DHT22;8301;51.440;6.610;2023-07-02T13:25:03;22.60;1.00
16384;DHT22;8301;51.440;6.610;2023-07-02T13:29:57;22.60;1.00
16384;DHT22;8301;51.440;6.610;2023-07-02T13:32:25;22.40;1.00
16384;DHT22;8301;51.440;6.610;2023-07-02T13:34:52;22.40;1.00
16384;DHT22;8301;51.440;6.610;2023-07-02T13:37:19;22.30;1.00
16384;DHT22;8301;51.440;6.610;2023-07-02T13:39:46;22.00;1.00
16384;DHT22;8301;51.440;6.610;2023-07-02T13:42:13;22.00;1.00
16384;DHT22;8301;51.440;6.610;2023-07-02T13:44:46;22.40;1.00
16384;DHT22;8301;51.440;6.610;2023-07-02T13:47:20;22.20;1.00
16384;DHT22;8301;51.440;6.610;2023-07-02T13:49:53;22.40;1.00
16384;DHT22;8301;51.440;6.610;2023-07-02T13:52:20;22.00;1.00
16384;DHT22;8301;51.440;6.610;2023-07-02T13:54:46;22.30;1.00
16384;DHT22;8301;51.440;6.610;2023-07-02T13:57:13;22.60;1.00
16384;DHT22;8301;51.440;6.610;2023-07-02T13:59:41;22.80;1.00
16384;DHT22;8301;51.440;6.610;2023-07-02T14:02:07;22.10;1.00
16384;DHT22;8301;51.440;6.610;2023-07-02T14:04:35;22.00;1.00
16384;DHT22;8301;51.440;6.610;2023-07-02T14:07:02;22.40;1.00
16384;DHT22;8301;51.440;6.610;2023-07-02T14:11:58;22.20;1.00
16384;DHT22;8301;51.440;6.610;2023-07-02T14:14:25;22.30;1.00
16384;DHT22;8301;51.440;6.610;2023-07-02T14:16:51;22.30;1.00
16384;DHT22;8301;51.440;6.610;2023-07-02T14:19:20;22.60;1.00
16384;DHT22;8301;51.440;6.610;2023-07-02T14:21:49;22.60;1.00
16384;DHT22;8301;51.440;6.610;2023-07-02T14:24:16;22.60;1.00
16384;DHT22;8301;51.440;6.610;2023-07-02T14:26:43;22.60;1.00
16384;DHT22;8301;51.440;6.610;2023-07-02T14:29:10;22.70;1.00
16384;DHT22;8301;51.440;6.610;2023-07-02T14:31:37;22.70;1.00
16384;DHT22;8301;51.440;6.610;2023-07-02T14:34:04;22.50;1.00
16384;DHT22;8301;51.440;6.610;2023-07-02T14:36:31;22.90;1.00
16384;DHT22;8301;51.440;6.610;2023-07-02T14:38:58;22.80;1.00
16384;DHT22;8301;51.440;6.610;2023-07-02T14:41:24;22.70;1.00
16384;DHT22;8301;51.440;6.610;2023-07-02T14:43:52;22.80;1.00
16384;DHT22;8301;51.440;6.610;2023-07-02T14:46:19;22.90;1.00
16384;DHT22;8301;51.440;6.610;2023-07-02T14:48:48;22.90;1.00
16384;DHT22;8301;51.440;6.610;2023-07-02T14:51:14;23.00;1.00
16384;DHT22;8301;51.440;6.610;2023-07-02T14:53:41;22.70;1.00
16384;DHT22;8301;51.440;6.610;2023-07-02T14:56:08;22.60;1.00
16384;DHT22;8301;51.440;6.610;2023-07-02T15:01:01;22.80;1.00
16384;DHT22;8301;51.440;6.610;2023-07-02T15:03:29;22.50;1.00
16384;DHT22;8301;51.440;6.610;2023-07-02T15:06:20;22.00;1.00
16384;DHT22;8301;51.440;6.610;2023-07-02T15:08:43;21.70;1.00
16384;DHT22;8301;51.440;6.610;2023-07-02T15:11:11;21.90;1.00
16384;DHT22;8301;51.440;6.610;2023-07-02T15:13:38;22.00;1.00
16384;DHT22;8301;51.440;6.610;2023-07-02T15:16:06;22.40;1.00
16384;DHT22;8301;51.440;6.610;2023-07-02T15:18:33;22.50;1.00
16384;DHT22;8301;51.440;6.610;2023-07-02T15:21:00;22.30;1.00
16384;DHT22;8301;51.440;6.610;2023-07-02T15:25:55;22.20;1.00
16384;DHT22;8301;51.440;6.610;2023-07-02T15:28:29;22.10;1.00
16384;DHT22;8301;51.440;6.610;2023-07-02T15:31:07;22.00;1.00
16384;DHT22;8301;51.440;6.610;2023-07-02T15:33:36;21.90;1.00
16384;DHT22;8301;51.440;6.610;2023-07-02T15:36:06;22.30;1.00
16384;DHT22;8301;51.440;6.610;2023-07-02T15:41:10;22.40;1.00
16384;DHT22;8301;51.440;6.610;2023-07-02T15:45:59;21.90;1.00
16384;DHT22;8301;51.440;6.610;2023-07-02T15:48:26;21.90;1.00
16384;DHT22;8301;51.440;6.610;2023-07-02T15:50:53;21.90;1.00
16384;DHT22;8301;51.440;6.610;2023-07-02T15:53:19;22.10;1.00
16384;DHT22;8301;51.440;6.610;2023-07-02T15:55:47;22.00;1.00
16384;DHT22;8301;51.440;6.610;2023-07-02T15:58:14;22.20;1.00
16384;DHT22;8301;51.440;6.610;2023-07-02T16:00:40;22.40;1.00
16384;DHT22;8301;51.440;6.610;2023-07-02T16:03:07;22.40;1.00
16384;DHT22;8301;51.440;6.610;2023-07-02T16:08:02;22.10;1.00
16384;DHT22;8301;51.440;6.610;2023-07-02T16:12:55;22.00;1.00
16384;DHT22;8301;51.440;6.610;2023-07-02T16:15:23;22.00;1.00
16384;DHT22;8301;51.440;6.610;2023-07-02T16:17:50;22.30;1.00
16384;DHT22;8301;51.440;6.610;2023-07-02T16:20:21;22.10;1.00
16384;DHT22;8301;51.440;6.610;2023-07-02T16:22:49;22.40;1.00
16384;DHT22;8301;51.440;6.610;2023-07-02T16:25:16;22.50;1.00